Time;durP1;ratioP1;P1;durP2;ratioP2;P2;SDS_P1;SDS_P2;PMS_P1;PMS_P2;Temp;Humidity;BMP_temperature;BMP_pressure;BME280_temperature;BME280_humidity;BME280_pressure;Samples;Min_cycle;Max_cycle;Signal;HPM_P1;HPM_P2
2022/12/10 00:01:03;;;;;;;;;;;;;;;;;;5071495;28;5060;-59
2022/12/10 00:03:29;;;;;;;;;;;;;;;;;;5062004;28;5176;-59
2022/12/10 00:05:54;;;;;;;;;;;;;;;;;;5082239;28;3623;-59
2022/12/10 00:08:19;;;;;;;;;;;;;;;;;;5078020;28;4422;-59
2022/12/10 00:10:44;;;;;;;;;;;;;;;;;;5059826;28;5017;-59
2022/12/10 00:13:09;;;;;;;;;;;;;;;;;;5056950;28;5387;-59
2022/12/10 00:15:35;;;;;;;;;;;;;;;;;;5075998;28;5048;-59
2022/12/10 00:18:00;;;;;;;;;;;;;;;;;;5079942;28;4978;-59
2022/12/10 00:20:26;;;;;;;;;;;;;;;;;;5075838;28;3783;-59
2022/12/10 00:22:51;;;;;;;;;;;;;;;;;;5058962;28;5449;-59
2022/12/10 00:25:16;;;;;;;;;;;;;;;;;;5079991;28;5070;-59
2022/12/10 00:27:41;;;;;;;;;;;;;;;;;;5078112;28;4916;-59
2022/12/10 00:30:07;;;;;;;;;;;;;;;;;;5079445;28;5459;-60
2022/12/10 00:32:32;;;;;;;;;;;;;;;;;;5074356;28;3040;-60
2022/12/10 00:34:57;;;;;;;;;;;;;;;;;;5077824;28;5086;-59
2022/12/10 00:37:23;;;;;;;;;;;;;;;;;;5044294;28;5105;-59
2022/12/10 00:39:48;;;;;;;;;;;;;;;;;;5048243;28;5153;-60
2022/12/10 00:42:13;;;;;;;;;;;;;;;;;;5077192;28;5571;-60
2022/12/10 00:44:38;;;;;;;;;;;;;;;;;;5085892;28;1197;-59
2022/12/10 00:47:04;;;;;;;;;;;;;;;;;;5068305;28;5003;-60
2022/12/10 00:49:29;;;;;;;;;;;;;;;;;;5069053;28;5768;-59
2022/12/10 00:51:54;;;;;;;;;;;;;;;;;;5071884;28;4846;-59
2022/12/10 00:54:20;;;;;;;;;;;;;;;;;;5070620;28;4643;-60
2022/12/10 00:56:45;;;;;;;;;;;;;;;;;;5081351;28;1055;-59
2022/12/10 00:59:10;;;;;;;;;;;;;;;;;;5069383;28;4793;-59
2022/12/10 01:01:39;;;;;;;;;;;;;;;;;;5076219;28;5020;-59
2022/12/10 01:04:08;;;;;;;;;;;;;;;;;;5068287;28;4977;-59
2022/12/10 01:06:35;;;;;;;;;;;;;;;;;;5074815;28;4976;-59
2022/12/10 01:09:06;;;;;;;;;;;;;;;;;;5066773;28;5142;-59
2022/12/10 01:11:33;;;;;;;;;;;;;;;;;;5070091;28;3304;-58
2022/12/10 01:13:58;;;;;;;;;;;;;;;;;;5084899;28;5009;-58
2022/12/10 01:16:23;;;;;;;;;;;;;;;;;;5086243;28;5000;-59
2022/12/10 01:18:48;;;;;;;;;;;;;;;;;;5075997;28;5207;-59
2022/12/10 01:21:15;;;;;;;;;;;;;;;;;;5079472;28;5472;-58
2022/12/10 01:23:40;;;;;;;;;;;;;;;;;;5075362;28;3348;-58
2022/12/10 01:26:07;;;;;;;;;;;;;;;;;;5075044;28;5387;-58
2022/12/10 01:28:33;;;;;;;;;;;;;;;;;;5082159;28;5192;-58
2022/12/10 01:31:02;;;;;;;;;;;;;;;;;;5083327;28;5020;-58
2022/12/10 01:33:27;;;;;;;;;;;;;;;;;;5074754;28;5070;-58
2022/12/10 01:35:52;;;;;;;;;;;;;;;;;;5075115;28;3389;-58
2022/12/10 01:38:17;;;;;;;;;;;;;;;;;;5073910;28;5023;-58
2022/12/10 01:40:43;;;;;;;;;;;;;;;;;;5072659;28;4973;-58
2022/12/10 01:43:11;;;;;;;;;;;;;;;;;;5077638;28;5120;-59
2022/12/10 01:45:37;;;;;;;;;;;;;;;;;;5049924;28;5016;-61
2022/12/10 01:48:02;;;;;;;;;;;;;;;;;;5071225;28;4971;-59
2022/12/10 01:50:27;;;;;;;;;;;;;;;;;;5077723;28;3480;-58
2022/12/10 01:52:52;;;;;;;;;;;;;;;;;;5077455;28;4805;-59
2022/12/10 01:55:38;;;;;;;;;;;;;;;;;;5061337;28;4617;-59
2022/12/10 01:58:03;;;;;;;;;;;;;;;;;;5069989;28;4976;-58
2022/12/10 02:00:28;;;;;;;;;;;;;;;;;;5077714;28;5025;-58
2022/12/10 02:02:56;;;;;;;;;;;;;;;;;;5068535;28;3419;-57
2022/12/10 02:05:32;;;;;;;;;;;;;;;;;;5070862;28;5086;-58
2022/12/10 02:08:00;;;;;;;;;;;;;;;;;;5053661;28;4966;-58
2022/12/10 02:10:44;;;;;;;;;;;;;;;;;;5078904;28;5066;-59
2022/12/10 02:13:11;;;;;;;;;;;;;;;;;;5069096;28;5179;-60
2022/12/10 02:15:41;;;;;;;;;;;;;;;;;;5053057;28;5024;-62
2022/12/10 02:18:18;;;;;;;;;;;;;;;;;;5051341;28;4577;-63
2022/12/10 02:20:45;;;;;;;;;;;;;;;;;;5054752;28;3532;-60
2022/12/10 02:23:15;;;;;;;;;;;;;;;;;;5065259;28;4499;-60
2022/12/10 02:25:45;;;;;;;;;;;;;;;;;;5051213;28;5105;-60
2022/12/10 02:28:13;;;;;;;;;;;;;;;;;;5061066;28;4625;-60
2022/12/10 02:30:39;;;;;;;;;;;;;;;;;;5081788;28;5129;-62
2022/12/10 02:33:04;;;;;;;;;;;;;;;;;;5059182;28;4983;-60
2022/12/10 02:35:30;;;;;;;;;;;;;;;;;;5046799;28;3583;-61
2022/12/10 02:37:57;;;;;;;;;;;;;;;;;;5054993;28;5104;-61
2022/12/10 02:40:26;;;;;;;;;;;;;;;;;;5056210;28;5160;-61
2022/12/10 02:42:51;;;;;;;;;;;;;;;;;;5075839;28;5120;-60
2022/12/10 02:45:17;;;;;;;;;;;;;;;;;;5076334;28;4522;-60
2022/12/10 02:47:42;;;;;;;;;;;;;;;;;;5060017;28;3285;-60
2022/12/10 02:50:08;;;;;;;;;;;;;;;;;;5075715;28;4881;-60
2022/12/10 02:52:33;;;;;;;;;;;;;;;;;;5077851;28;4964;-60
2022/12/10 02:54:58;;;;;;;;;;;;;;;;;;5070548;28;5012;-60
2022/12/10 02:57:28;;;;;;;;;;;;;;;;;;5074636;28;5130;-60
2022/12/10 02:59:58;;;;;;;;;;;;;;;;;;5061468;28;3236;-59
2022/12/10 03:02:26;;;;;;;;;;;;;;;;;;5064038;28;4403;-59
2022/12/10 03:04:59;;;;;;;;;;;;;;;;;;5063243;28;4942;-60
2022/12/10 03:07:45;;;;;;;;;;;;;;;;;;5069009;28;5129;-59
2022/12/10 03:10:12;;;;;;;;;;;;;;;;;;5048968;28;4491;-60
2022/12/10 03:12:41;;;;;;;;;;;;;;;;;;5074615;28;4956;-60
2022/12/10 03:15:07;;;;;;;;;;;;;;;;;;5048591;28;5000;-60
2022/12/10 03:17:33;;;;;;;;;;;;;;;;;;5053666;28;3483;-60
2022/12/10 03:19:58;;;;;;;;;;;;;;;;;;5052819;28;4653;-59
2022/12/10 03:22:23;;;;;;;;;;;;;;;;;;5054912;28;5216;-60
2022/12/10 03:24:49;;;;;;;;;;;;;;;;;;5070255;28;4446;-60
2022/12/10 03:27:15;;;;;;;;;;;;;;;;;;5057232;28;5047;-60
2022/12/10 03:29:42;;;;;;;;;;;;;;;;;;5053965;28;3391;-62
2022/12/10 03:32:07;;;;;;;;;;;;;;;;;;5052658;28;4901;-60
2022/12/10 03:34:33;;;;;;;;;;;;;;;;;;5055047;28;5102;-60
2022/12/10 03:36:58;;;;;;;;;;;;;;;;;;5043972;28;5262;-60
2022/12/10 03:39:24;;;;;;;;;;;;;;;;;;5052152;28;4894;-61
2022/12/10 03:41:49;;;;;;;;;;;;;;;;;;5053523;28;3371;-60
2022/12/10 03:44:17;;;;;;;;;;;;;;;;;;5072068;28;5195;-61
2022/12/10 03:46:42;;;;;;;;;;;;;;;;;;5040006;28;4598;-60
2022/12/10 03:49:07;;;;;;;;;;;;;;;;;;5066316;28;5099;-61
2022/12/10 03:51:33;;;;;;;;;;;;;;;;;;5076155;28;4973;-60
2022/12/10 03:53:58;;;;;;;;;;;;;;;;;;5086401;28;5159;-59
2022/12/10 03:56:23;;;;;;;;;;;;;;;;;;5066572;28;3290;-60
2022/12/10 03:58:48;;;;;;;;;;;;;;;;;;5066657;28;5311;-60
2022/12/10 04:01:14;;;;;;;;;;;;;;;;;;5071807;28;5134;-60
2022/12/10 04:03:40;;;;;;;;;;;;;;;;;;5069068;28;5282;-60
2022/12/10 04:06:06;;;;;;;;;;;;;;;;;;5082669;28;5108;-60
2022/12/10 04:08:31;;;;;;;;;;;;;;;;;;5072924;28;3442;-60
2022/12/10 04:11:06;;;;;;;;;;;;;;;;;;5079637;28;5038;-59
2022/12/10 04:16:28;;;;;;;;;;;;;;;;;;5074336;28;5162;-60
2022/12/10 04:18:53;;;;;;;;;;;;;;;;;;5075769;28;4939;-60
2022/12/10 04:26:52;;;;;;;;;;;;;;;;;;5072555;28;3166;-60
2022/12/10 04:29:21;;;;;;;;;;;;;;;;;;5074878;28;5037;-61
2022/12/10 04:31:46;;;;;;;;;;;;;;;;;;5073867;28;5017;-61
2022/12/10 04:34:12;;;;;;;;;;;;;;;;;;5079934;28;5104;-60
2022/12/10 04:36:37;;;;;;;;;;;;;;;;;;5077372;28;4555;-59
2022/12/10 04:39:02;;;;;;;;;;;;;;;;;;5073371;28;5115;-60
2022/12/10 04:41:28;;;;;;;;;;;;;;;;;;5069672;28;3319;-60
2022/12/10 04:43:53;;;;;;;;;;;;;;;;;;5070177;28;5068;-60
2022/12/10 04:46:18;;;;;;;;;;;;;;;;;;5072799;28;5050;-61
2022/12/10 04:48:43;;;;;;;;;;;;;;;;;;5069580;28;4654;-60
2022/12/10 04:51:09;;;;;;;;;;;;;;;;;;5076498;28;4664;-60
2022/12/10 04:53:34;;;;;;;;;;;;;;;;;;5074089;28;4682;-60
2022/12/10 04:56:00;;;;;;;;;;;;;;;;;;5078974;28;4516;-61
2022/12/10 04:58:30;;;;;;;;;;;;;;;;;;5059240;28;5087;-61
2022/12/10 05:01:00;;;;;;;;;;;;;;;;;;5069813;28;4983;-60
2022/12/10 05:03:25;;;;;;;;;;;;;;;;;;5075048;28;4709;-60
2022/12/10 05:05:50;;;;;;;;;;;;;;;;;;5078860;28;3438;-59
2022/12/10 05:08:16;;;;;;;;;;;;;;;;;;5072238;28;5001;-60
2022/12/10 05:10:41;;;;;;;;;;;;;;;;;;5072389;28;5550;-59
2022/12/10 05:13:06;;;;;;;;;;;;;;;;;;5069655;28;5125;-60
2022/12/10 05:15:31;;;;;;;;;;;;;;;;;;5073830;28;5055;-60
2022/12/10 05:17:57;;;;;;;;;;;;;;;;;;5069845;28;3458;-60
2022/12/10 05:20:22;;;;;;;;;;;;;;;;;;5068300;28;4443;-59
2022/12/10 05:25:52;;;;;;;;;;;;;;;;;;5070964;28;5063;-60
2022/12/10 05:28:16;;;;;;;;;;;;;;;;;;5071576;28;5388;-60
2022/12/10 05:30:41;;;;;;;;;;;;;;;;;;5050980;28;4479;-59
2022/12/10 05:33:07;;;;;;;;;;;;;;;;;;5071678;28;5141;-60
2022/12/10 05:35:32;;;;;;;;;;;;;;;;;;5073188;28;3448;-60
2022/12/10 05:37:57;;;;;;;;;;;;;;;;;;5070336;28;5066;-60
2022/12/10 05:40:22;;;;;;;;;;;;;;;;;;5074785;28;5034;-60
2022/12/10 05:42:48;;;;;;;;;;;;;;;;;;5074906;28;5125;-61
2022/12/10 05:45:13;;;;;;;;;;;;;;;;;;5069700;28;5040;-61
2022/12/10 05:47:38;;;;;;;;;;;;;;;;;;5070499;28;3342;-63
2022/12/10 05:50:04;;;;;;;;;;;;;;;;;;5051049;28;5061;-60
2022/12/10 05:52:29;;;;;;;;;;;;;;;;;;5089549;28;5061;-60
2022/12/10 05:54:54;;;;;;;;;;;;;;;;;;5082205;28;5657;-62
2022/12/10 05:57:19;;;;;;;;;;;;;;;;;;5086723;28;4850;-60
2022/12/10 05:59:45;;;;;;;;;;;;;;;;;;5070601;28;3318;-61
2022/12/10 06:02:10;;;;;;;;;;;;;;;;;;5073173;28;4505;-61
2022/12/10 06:04:35;;;;;;;;;;;;;;;;;;5071563;28;5146;-62
2022/12/10 06:07:00;;;;;;;;;;;;;;;;;;5078817;28;5213;-61
2022/12/10 06:09:25;;;;;;;;;;;;;;;;;;5067168;28;5087;-62
2022/12/10 06:11:51;;;;;;;;;;;;;;;;;;5082440;28;2995;-62
2022/12/10 06:14:16;;;;;;;;;;;;;;;;;;5069677;28;4970;-61
2022/12/10 06:16:41;;;;;;;;;;;;;;;;;;5080779;28;5148;-61
2022/12/10 06:19:06;;;;;;;;;;;;;;;;;;5055572;28;4892;-62
2022/12/10 06:21:32;;;;;;;;;;;;;;;;;;5077949;28;5146;-62
2022/12/10 06:23:57;;;;;;;;;;;;;;;;;;5078628;28;3298;-60
2022/12/10 06:26:23;;;;;;;;;;;;;;;;;;5085941;28;5139;-61
2022/12/10 06:28:49;;;;;;;;;;;;;;;;;;5074205;28;4991;-62
2022/12/10 06:31:14;;;;;;;;;;;;;;;;;;5075087;28;4519;-60
2022/12/10 06:33:39;;;;;;;;;;;;;;;;;;5080440;28;5241;-60
2022/12/10 06:36:05;;;;;;;;;;;;;;;;;;5086777;28;4998;-60
2022/12/10 06:38:31;;;;;;;;;;;;;;;;;;5062460;28;3450;-60
2022/12/10 06:40:56;;;;;;;;;;;;;;;;;;5083862;28;4855;-58
2022/12/10 06:43:21;;;;;;;;;;;;;;;;;;5075448;28;5119;-59
2022/12/10 06:45:46;;;;;;;;;;;;;;;;;;5068342;28;4634;-61
2022/12/10 06:48:12;;;;;;;;;;;;;;;;;;5060756;28;4712;-61
2022/12/10 06:50:37;;;;;;;;;;;;;;;;;;5084092;28;3222;-60
2022/12/10 06:53:02;;;;;;;;;;;;;;;;;;5066441;28;5081;-60
2022/12/10 06:55:28;;;;;;;;;;;;;;;;;;5068137;28;4996;-60
2022/12/10 06:57:53;;;;;;;;;;;;;;;;;;5070961;28;5026;-60
2022/12/10 07:00:18;;;;;;;;;;;;;;;;;;5068517;28;5245;-61
2022/12/10 07:02:44;;;;;;;;;;;;;;;;;;5061425;28;3384;-61
2022/12/10 07:05:09;;;;;;;;;;;;;;;;;;5070430;28;4598;-61
2022/12/10 07:07:35;;;;;;;;;;;;;;;;;;5078121;28;4797;-61
2022/12/10 07:10:00;;;;;;;;;;;;;;;;;;5046080;28;5018;-61
2022/12/10 07:12:25;;;;;;;;;;;;;;;;;;5064349;28;5262;-61
2022/12/10 07:14:51;;;;;;;;;;;;;;;;;;5071528;28;3420;-61
2022/12/10 07:17:16;;;;;;;;;;;;;;;;;;5072996;28;4376;-61
2022/12/10 07:19:41;;;;;;;;;;;;;;;;;;5066058;28;5085;-60
2022/12/10 07:22:06;;;;;;;;;;;;;;;;;;5068849;28;5340;-60
2022/12/10 07:24:32;;;;;;;;;;;;;;;;;;5074106;28;4577;-61
2022/12/10 07:26:57;;;;;;;;;;;;;;;;;;5071107;28;3231;-60
2022/12/10 07:29:22;;;;;;;;;;;;;;;;;;5073157;28;5066;-61
2022/12/10 07:31:48;;;;;;;;;;;;;;;;;;5067563;28;4866;-60
2022/12/10 07:34:13;;;;;;;;;;;;;;;;;;5056743;28;4507;-60
2022/12/10 07:36:38;;;;;;;;;;;;;;;;;;5066679;28;5026;-60
2022/12/10 07:39:07;;;;;;;;;;;;;;;;;;5066199;28;5043;-59
2022/12/10 07:41:32;;;;;;;;;;;;;;;;;;5066059;28;3497;-61
2022/12/10 07:43:58;;;;;;;;;;;;;;;;;;5072746;28;5374;-60
2022/12/10 07:46:24;;;;;;;;;;;;;;;;;;5050785;28;5080;-60
2022/12/10 07:48:49;;;;;;;;;;;;;;;;;;5070129;28;5095;-60
2022/12/10 07:51:15;;;;;;;;;;;;;;;;;;5069253;28;4510;-60
2022/12/10 07:53:41;;;;;;;;;;;;;;;;;;5070958;28;4634;-58
2022/12/10 07:56:06;;;;;;;;;;;;;;;;;;5069975;28;5373;-58
2022/12/10 07:58:32;;;;;;;;;;;;;;;;;;5076453;28;5022;-58
2022/12/10 08:00:57;;;;;;;;;;;;;;;;;;5072766;28;5007;-58
2022/12/10 08:03:23;;;;;;;;;;;;;;;;;;5078137;28;5088;-58
2022/12/10 08:05:49;;;;;;;;;;;;;;;;;;5074535;28;3378;-59
2022/12/10 08:08:14;;;;;;;;;;;;;;;;;;5067312;28;5112;-58
2022/12/10 08:10:39;;;;;;;;;;;;;;;;;;5073565;28;4615;-58
2022/12/10 08:13:05;;;;;;;;;;;;;;;;;;5046513;28;4936;-59
2022/12/10 08:15:30;;;;;;;;;;;;;;;;;;5079237;28;5063;-58
2022/12/10 08:17:55;;;;;;;;;;;;;;;;;;5048246;28;3544;-58
2022/12/10 08:20:21;;;;;;;;;;;;;;;;;;5079872;28;4989;-58
2022/12/10 08:22:46;;;;;;;;;;;;;;;;;;5076424;28;5544;-58
2022/12/10 08:25:11;;;;;;;;;;;;;;;;;;5054225;28;5366;-57
2022/12/10 08:27:36;;;;;;;;;;;;;;;;;;5075453;28;5254;-58
2022/12/10 08:30:02;;;;;;;;;;;;;;;;;;5071564;28;5225;-59
2022/12/10 08:32:27;;;;;;;;;;;;;;;;;;5071504;28;3291;-58
2022/12/10 08:34:52;;;;;;;;;;;;;;;;;;5067411;28;5052;-58
2022/12/10 08:37:18;;;;;;;;;;;;;;;;;;5075693;28;5038;-59
2022/12/10 08:39:43;;;;;;;;;;;;;;;;;;5072283;28;4502;-58
2022/12/10 08:42:08;;;;;;;;;;;;;;;;;;5078710;28;4960;-59
2022/12/10 08:44:33;;;;;;;;;;;;;;;;;;5071407;28;3308;-58
2022/12/10 08:46:59;;;;;;;;;;;;;;;;;;5062369;28;4920;-58
2022/12/10 08:49:24;;;;;;;;;;;;;;;;;;5067560;28;5048;-58
2022/12/10 08:51:49;;;;;;;;;;;;;;;;;;5071062;28;5084;-58
2022/12/10 08:54:14;;;;;;;;;;;;;;;;;;5054510;28;4712;-58
2022/12/10 08:56:40;;;;;;;;;;;;;;;;;;5080302;28;1060;-58
2022/12/10 08:59:05;;;;;;;;;;;;;;;;;;5083223;28;4976;-58
2022/12/10 09:01:31;;;;;;;;;;;;;;;;;;5079781;28;4422;-58
2022/12/10 09:03:56;;;;;;;;;;;;;;;;;;5072237;28;5091;-57
2022/12/10 09:06:21;;;;;;;;;;;;;;;;;;5073204;28;5067;-58
2022/12/10 09:08:47;;;;;;;;;;;;;;;;;;5065880;28;3602;-59
2022/12/10 09:11:13;;;;;;;;;;;;;;;;;;5074275;28;4968;-58
2022/12/10 09:13:39;;;;;;;;;;;;;;;;;;5066038;28;4934;-58
2022/12/10 09:16:04;;;;;;;;;;;;;;;;;;5073209;28;4884;-58
2022/12/10 09:18:30;;;;;;;;;;;;;;;;;;5092900;28;5392;-58
2022/12/10 09:20:55;;;;;;;;;;;;;;;;;;5070817;28;3407;-58
2022/12/10 09:23:20;;;;;;;;;;;;;;;;;;5078706;28;5073;-58
2022/12/10 09:25:45;;;;;;;;;;;;;;;;;;5054717;28;5043;-58
2022/12/10 09:28:11;;;;;;;;;;;;;;;;;;5075947;28;5287;-58
2022/12/10 09:30:36;;;;;;;;;;;;;;;;;;5080240;28;4901;-59
2022/12/10 09:33:01;;;;;;;;;;;;;;;;;;5070323;28;5134;-58
2022/12/10 09:35:27;;;;;;;;;;;;;;;;;;5082072;28;2148;-59
2022/12/10 09:37:52;;;;;;;;;;;;;;;;;;5073697;28;4825;-59
2022/12/10 09:40:18;;;;;;;;;;;;;;;;;;5071843;28;4978;-59
2022/12/10 09:42:47;;;;;;;;;;;;;;;;;;5067619;28;4744;-61
2022/12/10 09:45:12;;;;;;;;;;;;;;;;;;5074989;28;4668;-62
2022/12/10 09:47:51;;;;;;;;;;;;;;;;;;5081138;28;2181;-62
2022/12/10 09:50:26;;;;;;;;;;;;;;;;;;5053759;28;5052;-62
2022/12/10 09:52:52;;;;;;;;;;;;;;;;;;5069899;28;4960;-61
2022/12/10 09:55:20;;;;;;;;;;;;;;;;;;5079558;28;5067;-61
2022/12/10 09:57:46;;;;;;;;;;;;;;;;;;5051451;28;5042;-61
2022/12/10 10:00:23;;;;;;;;;;;;;;;;;;5064385;28;4966;-61
2022/12/10 10:02:49;;;;;;;;;;;;;;;;;;5070628;28;3269;-61
2022/12/10 10:05:20;;;;;;;;;;;;;;;;;;5076471;28;4850;-61
2022/12/10 10:07:48;;;;;;;;;;;;;;;;;;5083112;28;5095;-61
2022/12/10 10:10:21;;;;;;;;;;;;;;;;;;5087029;28;4506;-62
2022/12/10 10:12:46;;;;;;;;;;;;;;;;;;5077607;28;5094;-65
2022/12/10 10:15:13;;;;;;;;;;;;;;;;;;5074769;28;5085;-70
2022/12/10 10:17:38;;;;;;;;;;;;;;;;;;5073838;28;3424;-70
2022/12/10 10:20:04;;;;;;;;;;;;;;;;;;5075344;28;5085;-65
2022/12/10 10:22:30;;;;;;;;;;;;;;;;;;5074018;28;5130;-72
2022/12/10 10:24:55;;;;;;;;;;;;;;;;;;5078475;28;5463;-70
2022/12/10 10:27:21;;;;;;;;;;;;;;;;;;5068315;28;4582;-69
2022/12/10 10:29:49;;;;;;;;;;;;;;;;;;5057547;28;3430;-68
2022/12/10 10:32:14;;;;;;;;;;;;;;;;;;5078025;28;5065;-68
2022/12/10 10:34:40;;;;;;;;;;;;;;;;;;5070383;28;4976;-69
2022/12/10 10:37:05;;;;;;;;;;;;;;;;;;5077543;28;6181;-70
2022/12/10 10:39:31;;;;;;;;;;;;;;;;;;5078584;28;5015;-69
2022/12/10 10:41:57;;;;;;;;;;;;;;;;;;5054165;28;3357;-65
2022/12/10 10:44:23;;;;;;;;;;;;;;;;;;5073488;28;4885;-70
2022/12/10 10:46:52;;;;;;;;;;;;;;;;;;5058175;28;4824;-63
2022/12/10 10:49:17;;;;;;;;;;;;;;;;;;5071268;28;5010;-67
2022/12/10 10:51:44;;;;;;;;;;;;;;;;;;5080586;28;5063;-68
2022/12/10 10:54:09;;;;;;;;;;;;;;;;;;5068914;28;4995;-66
2022/12/10 10:56:41;;;;;;;;;;;;;;;;;;5084777;28;3543;-66
2022/12/10 10:59:07;;;;;;;;;;;;;;;;;;5057086;28;5047;-67
2022/12/10 11:01:52;;;;;;;;;;;;;;;;;;5071464;28;5034;-65
2022/12/10 11:04:18;;;;;;;;;;;;;;;;;;5053277;28;5378;-65
2022/12/10 11:06:43;;;;;;;;;;;;;;;;;;5056074;28;4856;-67
2022/12/10 11:09:20;;;;;;;;;;;;;;;;;;5082380;28;5527;-66
2022/12/10 11:11:45;;;;;;;;;;;;;;;;;;5069793;28;1611;-67
2022/12/10 11:14:15;;;;;;;;;;;;;;;;;;5051733;28;5630;-65
2022/12/10 11:16:40;;;;;;;;;;;;;;;;;;5062414;28;5038;-65
2022/12/10 11:19:08;;;;;;;;;;;;;;;;;;5073185;28;5191;-66
2022/12/10 11:21:33;;;;;;;;;;;;;;;;;;5053765;28;5079;-67
2022/12/10 11:23:59;;;;;;;;;;;;;;;;;;5074779;28;5041;-60
2022/12/10 11:26:42;;;;;;;;;;;;;;;;;;5075106;28;3595;-61
2022/12/10 11:29:07;;;;;;;;;;;;;;;;;;5069434;28;4986;-64
2022/12/10 11:31:52;;;;;;;;;;;;;;;;;;5097083;28;4638;-63
2022/12/10 11:34:18;;;;;;;;;;;;;;;;;;5074862;28;5350;-62
2022/12/10 11:36:44;;;;;;;;;;;;;;;;;;5063778;28;5007;-60
2022/12/10 11:39:21;;;;;;;;;;;;;;;;;;5071085;28;4648;-62
2022/12/10 11:41:46;;;;;;;;;;;;;;;;;;5076268;28;3635;-63
2022/12/10 11:44:32;;;;;;;;;;;;;;;;;;5079020;28;4967;-60
2022/12/10 11:47:00;;;;;;;;;;;;;;;;;;5062677;28;5010;-66
2022/12/10 11:49:29;;;;;;;;;;;;;;;;;;5074670;28;5084;-67
2022/12/10 11:52:00;;;;;;;;;;;;;;;;;;5040906;28;5531;-64
2022/12/10 11:54:34;;;;;;;;;;;;;;;;;;5071201;28;4932;-63
2022/12/10 11:57:04;;;;;;;;;;;;;;;;;;5072832;28;4890;-64
2022/12/10 11:59:42;;;;;;;;;;;;;;;;;;5056860;28;3448;-58
2022/12/10 12:02:10;;;;;;;;;;;;;;;;;;5069507;28;5016;-58
2022/12/10 12:04:38;;;;;;;;;;;;;;;;;;5058851;28;5026;-58
2022/12/10 12:07:22;;;;;;;;;;;;;;;;;;5071444;28;4842;-59
2022/12/10 12:09:51;;;;;;;;;;;;;;;;;;5070510;28;4914;-60
2022/12/10 12:12:22;;;;;;;;;;;;;;;;;;5040918;28;5462;-59
2022/12/10 12:14:53;;;;;;;;;;;;;;;;;;5078607;28;3214;-60
2022/12/10 12:17:20;;;;;;;;;;;;;;;;;;5081768;28;4875;-60
2022/12/10 12:19:47;;;;;;;;;;;;;;;;;;5061173;28;5315;-59
2022/12/10 12:22:21;;;;;;;;;;;;;;;;;;5064840;28;4488;-60
2022/12/10 12:24:48;;;;;;;;;;;;;;;;;;5078192;28;4533;-58
2022/12/10 12:27:16;;;;;;;;;;;;;;;;;;5068750;28;5961;-58
2022/12/10 12:29:44;;;;;;;;;;;;;;;;;;5051188;28;1066;-58
2022/12/10 12:32:11;;;;;;;;;;;;;;;;;;5051054;28;4485;-59
2022/12/10 12:34:37;;;;;;;;;;;;;;;;;;5036453;28;5388;-61
2022/12/10 12:37:02;;;;;;;;;;;;;;;;;;5073332;28;4977;-60
2022/12/10 12:39:28;;;;;;;;;;;;;;;;;;5078432;28;5086;-58
2022/12/10 12:42:03;;;;;;;;;;;;;;;;;;5087495;28;1617;-60
2022/12/10 12:44:47;;;;;;;;;;;;;;;;;;5080850;28;4446;-59
2022/12/10 12:47:12;;;;;;;;;;;;;;;;;;5051023;28;5121;-62
2022/12/10 12:49:38;;;;;;;;;;;;;;;;;;5078121;28;5145;-59
2022/12/10 12:52:12;;;;;;;;;;;;;;;;;;5066327;28;5035;-59
2022/12/10 12:54:37;;;;;;;;;;;;;;;;;;5077410;28;4788;-59
2022/12/10 12:57:04;;;;;;;;;;;;;;;;;;5085174;28;5110;-59
2022/12/10 12:59:48;;;;;;;;;;;;;;;;;;5086637;28;1256;-60
2022/12/10 13:02:26;;;;;;;;;;;;;;;;;;5083232;28;5242;-60
2022/12/10 13:04:52;;;;;;;;;;;;;;;;;;5059554;28;4968;-59
2022/12/10 13:07:20;;;;;;;;;;;;;;;;;;5057884;28;4474;-60
2022/12/10 13:09:49;;;;;;;;;;;;;;;;;;5054385;28;4523;-60
2022/12/10 13:12:14;;;;;;;;;;;;;;;;;;5053707;28;5097;-59
2022/12/10 13:14:51;;;;;;;;;;;;;;;;;;5084050;28;1147;-59
2022/12/10 13:17:52;;;;;;;;;;;;;;;;;;5077981;28;4755;-59
2022/12/10 13:20:26;;;;;;;;;;;;;;;;;;5006919;28;4915;-59
2022/12/10 13:23:14;;;;;;;;;;;;;;;;;;5073677;28;5164;-59
2022/12/10 13:25:41;;;;;;;;;;;;;;;;;;5063673;28;5101;-60
2022/12/10 13:28:24;;;;;;;;;;;;;;;;;;5072481;28;5137;-59
2022/12/10 13:31:05;;;;;;;;;;;;;;;;;;5090898;28;5016;-58
2022/12/10 13:33:45;;;;;;;;;;;;;;;;;;5091352;28;4418;-58
2022/12/10 13:36:10;;;;;;;;;;;;;;;;;;5091258;28;4833;-60
2022/12/10 13:38:39;;;;;;;;;;;;;;;;;;5089554;28;1197;-59
2022/12/10 13:44:24;;;;;;;;;;;;;;;;;;5075534;28;4740;-60
2022/12/10 13:46:52;;;;;;;;;;;;;;;;;;5079958;28;4459;-59
2022/12/10 13:49:18;;;;;;;;;;;;;;;;;;5078232;28;4636;-58
2022/12/10 13:51:56;;;;;;;;;;;;;;;;;;5072379;28;5180;-59
2022/12/10 13:54:40;;;;;;;;;;;;;;;;;;5087014;28;4897;-59
2022/12/10 13:57:18;;;;;;;;;;;;;;;;;;5090835;28;4949;-59
2022/12/10 14:00:06;;;;;;;;;;;;;;;;;;5082704;28;1085;-59
2022/12/10 14:02:34;;;;;;;;;;;;;;;;;;5068545;28;4383;-59
2022/12/10 14:05:15;;;;;;;;;;;;;;;;;;5086098;28;4784;-60
2022/12/10 14:07:42;;;;;;;;;;;;;;;;;;5071671;28;5083;-60
2022/12/10 14:10:08;;;;;;;;;;;;;;;;;;5058327;28;4476;-59
2022/12/10 14:12:35;;;;;;;;;;;;;;;;;;5058383;28;5345;-60
2022/12/10 14:15:01;;;;;;;;;;;;;;;;;;5076234;28;5116;-60
2022/12/10 14:17:34;;;;;;;;;;;;;;;;;;5066598;28;2533;-59
2022/12/10 14:19:59;;;;;;;;;;;;;;;;;;5065900;28;4540;-60
2022/12/10 14:22:30;;;;;;;;;;;;;;;;;;5066039;28;5140;-59
2022/12/10 14:24:55;;;;;;;;;;;;;;;;;;5071715;28;4454;-59
2022/12/10 14:27:24;;;;;;;;;;;;;;;;;;5071091;28;5076;-60
2022/12/10 14:29:50;;;;;;;;;;;;;;;;;;5088564;28;2739;-61
2022/12/10 14:32:16;;;;;;;;;;;;;;;;;;5069533;28;4504;-59
2022/12/10 14:34:42;;;;;;;;;;;;;;;;;;5054329;28;5098;-59
2022/12/10 14:37:07;;;;;;;;;;;;;;;;;;5078335;28;4929;-61
2022/12/10 14:39:33;;;;;;;;;;;;;;;;;;5046846;28;5133;-63
2022/12/10 14:42:03;;;;;;;;;;;;;;;;;;5062452;28;3179;-64
2022/12/10 14:44:28;;;;;;;;;;;;;;;;;;5062165;28;4531;-63
2022/12/10 14:47:02;;;;;;;;;;;;;;;;;;5074923;28;4989;-62
2022/12/10 14:49:27;;;;;;;;;;;;;;;;;;5080051;28;5176;-63
2022/12/10 14:51:52;;;;;;;;;;;;;;;;;;5076973;28;4526;-61
2022/12/10 14:54:28;;;;;;;;;;;;;;;;;;5052215;28;4972;-63
2022/12/10 14:56:53;;;;;;;;;;;;;;;;;;5070437;28;1109;-62
2022/12/10 14:59:23;;;;;;;;;;;;;;;;;;5051631;28;4800;-63
2022/12/10 15:01:49;;;;;;;;;;;;;;;;;;5051952;28;4848;-62
2022/12/10 15:04:18;;;;;;;;;;;;;;;;;;5048744;28;5060;-62
2022/12/10 15:06:43;;;;;;;;;;;;;;;;;;5086378;28;5112;-63
2022/12/10 15:09:29;;;;;;;;;;;;;;;;;;5063118;28;5053;-64
2022/12/10 15:11:58;;;;;;;;;;;;;;;;;;5080840;28;3337;-63
2022/12/10 15:14:23;;;;;;;;;;;;;;;;;;5062325;28;5425;-62
2022/12/10 15:16:48;;;;;;;;;;;;;;;;;;5060187;28;5504;-62
2022/12/10 15:19:13;;;;;;;;;;;;;;;;;;5069021;28;5087;-61
2022/12/10 15:21:42;;;;;;;;;;;;;;;;;;5081303;28;4822;-63
2022/12/10 15:24:33;;;;;;;;;;;;;;;;;;5061739;28;4968;-63
2022/12/10 15:26:59;;;;;;;;;;;;;;;;;;5055192;28;4677;-62
2022/12/10 15:29:25;;;;;;;;;;;;;;;;;;5082162;28;3630;-62
2022/12/10 15:31:54;;;;;;;;;;;;;;;;;;5065930;28;4881;-62
2022/12/10 15:34:20;;;;;;;;;;;;;;;;;;5073385;28;5196;-62
2022/12/10 15:36:51;;;;;;;;;;;;;;;;;;5050174;28;4662;-63
2022/12/10 15:39:21;;;;;;;;;;;;;;;;;;5083243;28;5040;-63
2022/12/10 15:41:46;;;;;;;;;;;;;;;;;;5056099;28;3665;-63
2022/12/10 15:44:18;;;;;;;;;;;;;;;;;;5066893;28;5111;-61
2022/12/10 15:46:47;;;;;;;;;;;;;;;;;;5080778;28;5538;-60
2022/12/10 15:49:12;;;;;;;;;;;;;;;;;;5077118;28;4977;-63
2022/12/10 15:51:37;;;;;;;;;;;;;;;;;;5070465;28;5021;-62
2022/12/10 15:54:12;;;;;;;;;;;;;;;;;;5077631;28;5112;-58
2022/12/10 15:56:38;;;;;;;;;;;;;;;;;;5058471;28;3489;-59
2022/12/10 15:59:03;;;;;;;;;;;;;;;;;;5056227;28;5074;-57
2022/12/10 16:01:28;;;;;;;;;;;;;;;;;;5074423;28;5548;-58
2022/12/10 16:03:53;;;;;;;;;;;;;;;;;;5069154;28;4968;-58
2022/12/10 16:06:19;;;;;;;;;;;;;;;;;;5079202;28;4554;-58
2022/12/10 16:08:46;;;;;;;;;;;;;;;;;;5075182;28;3524;-58
2022/12/10 16:11:14;;;;;;;;;;;;;;;;;;5075794;28;4703;-58
2022/12/10 16:13:41;;;;;;;;;;;;;;;;;;5064256;28;5088;-58
2022/12/10 16:16:09;;;;;;;;;;;;;;;;;;5054924;28;4548;-57
2022/12/10 16:18:36;;;;;;;;;;;;;;;;;;5050704;28;5318;-58
2022/12/10 16:21:02;;;;;;;;;;;;;;;;;;5071238;28;4497;-57
2022/12/10 16:23:27;;;;;;;;;;;;;;;;;;5083844;28;2118;-57
2022/12/10 16:25:52;;;;;;;;;;;;;;;;;;5059050;28;4904;-57
2022/12/10 16:28:18;;;;;;;;;;;;;;;;;;5068194;28;5067;-57
2022/12/10 16:30:48;;;;;;;;;;;;;;;;;;5050693;28;5023;-58
2022/12/10 16:33:19;;;;;;;;;;;;;;;;;;5070430;28;4843;-57
2022/12/10 16:35:45;;;;;;;;;;;;;;;;;;5076879;28;3219;-57
2022/12/10 16:38:11;;;;;;;;;;;;;;;;;;5073847;28;4835;-58
2022/12/10 16:40:36;;;;;;;;;;;;;;;;;;5076555;28;4394;-57
2022/12/10 16:43:01;;;;;;;;;;;;;;;;;;5085438;28;4936;-57
2022/12/10 16:45:28;;;;;;;;;;;;;;;;;;5080999;28;5038;-57
2022/12/10 16:47:53;;;;;;;;;;;;;;;;;;5083362;28;1917;-57
2022/12/10 16:50:19;;;;;;;;;;;;;;;;;;5080793;28;5687;-57
2022/12/10 16:52:44;;;;;;;;;;;;;;;;;;5060939;28;5218;-56
2022/12/10 16:55:13;;;;;;;;;;;;;;;;;;5079185;28;4950;-57
2022/12/10 16:57:40;;;;;;;;;;;;;;;;;;5063393;28;5036;-56
2022/12/10 17:00:05;;;;;;;;;;;;;;;;;;5080992;28;5066;-57
2022/12/10 17:02:30;;;;;;;;;;;;;;;;;;5068412;28;1109;-57
2022/12/10 17:04:56;;;;;;;;;;;;;;;;;;5082986;28;4404;-57
2022/12/10 17:07:21;;;;;;;;;;;;;;;;;;5082521;28;5159;-57
2022/12/10 17:09:46;;;;;;;;;;;;;;;;;;5071060;28;5049;-57
2022/12/10 17:12:11;;;;;;;;;;;;;;;;;;5073863;28;4868;-58
2022/12/10 17:14:38;;;;;;;;;;;;;;;;;;5076057;28;1268;-56
2022/12/10 17:17:03;;;;;;;;;;;;;;;;;;5058869;28;4955;-56
2022/12/10 17:19:29;;;;;;;;;;;;;;;;;;5058432;28;4886;-57